Hovedside
METAR-TAF:

METAR-TAF

Lufthavner :

Roskilde, Danmark

Roskilde lufthavn

breddegrad: 55-35N, lengdegrad: 012-08E, høyde over havet: 44 m

Gjeldene værobservasjon

Denne rapporten ble laget for 18 minutter siden, klokken 22:20 UTC
Vind 5 kt fra Øst-nordøst, skiftende mellom Nord og Øst
Temperatur 16°C
Luftfuktighet 88%
Trykk 1010 hPa
Sikt 10 km eller mer
lette regnbyger

METAR: EKRK 242220Z AUTO 07005KT 010V090 9999NDV -SHRA SCT034/// OVC040/// 16/14 Q1010

Tid: 00:38 (22:38 UTC)

Varsel

Denne rapporten ble laget for 2 timer og 19 minutter siden, klokken 20:19 UTC
Varsel gyldig fra 24. klokken 21 UTC til 25. klokken 06 UTC
Vind 5 kt fra Øst-sørøst
Sikt 10 km eller mer
Brutte skyer i en høyde av 1500 ft
Midlertidig
fra 24. klokken 21 UTC til 25. klokken 03 UTC
Sikt: 4000 m
Brutte skyer i en høyde av 800 ft
dis, lett regn

TAF: EKRK 242019Z 2421/2506 12005KT 9999 BKN015 TEMPO 2421/2503 4000 BR -RA BKN008

Værobservasjoner og værvarsel for over 4000 flyplasser (METAR- og TAF-rapporter).

Tilgjengelige stasjoner er representert av de røde og gule prikkene på kartet.

Hold musepekeren over prikken for å se navnet på stasjonen.

Klikk så for å se værobservasjoner og -varsler.

For å forandre kartet kan du klikke på den grønne knappen med svart kryss for å zoome inn, på den grønne knappen med strek for å zoome ut, eller på de grønne pilene for å se tilstøtende kart.


METAR-TAF: